GIRYN EGKA-EGKA
Flight info
| Callsign | GIRYN |
|---|---|
| Flight time | 0h 31m |
| Altitude | 4000 |
| Route | VFR DEPARTURE TO SOUTH |
| Aircraft | P28A/L-V/N |
Departure
| Time | 2026-05-04 05:03 |
|---|---|
| Airport | Brighton City Airport (EGKA) |
Arrival
| Time | 2026-05-04 05:34 |
|---|---|
| Airport | Brighton City Airport (EGKA) |
| Time | Latitude | Longitude | Altitude | Speed | Heading |
|---|---|---|---|---|---|
| 2026-05-04 04:35 | 50.83429 | -0.29019 | 9 ft | 0 kts | 251° |
| 2026-05-04 04:47 | 50.83427 | -0.29026 | 9 ft | 3 kts | 254° |
| 2026-05-04 04:47 | 50.83431 | -0.29052 | 9 ft | 2 kts | 315° |
| 2026-05-04 04:47 | 50.83441 | -0.29065 | 9 ft | 3 kts | 349° |
| 2026-05-04 04:47 | 50.83467 | -0.29059 | 9 ft | 5 kts | 45° |
| 2026-05-04 04:48 | 50.83483 | -0.28997 | 9 ft | 7 kts | 75° |
| 2026-05-04 04:49 | 50.83631 | -0.28873 | 8 ft | 10 kts | 306° |
| 2026-05-04 04:49 | 50.83658 | -0.28932 | 9 ft | 10 kts | 306° |
| 2026-05-04 04:49 | 50.83709 | -0.29048 | 9 ft | 10 kts | 304° |
| 2026-05-04 04:49 | 50.83748 | -0.29136 | 10 ft | 10 kts | 303° |
| 2026-05-04 04:50 | 50.83789 | -0.29226 | 9 ft | 10 kts | 307° |
| 2026-05-04 04:50 | 50.83825 | -0.29311 | 10 ft | 4 kts | 313° |
| 2026-05-04 04:50 | 50.83827 | -0.29314 | 9 ft | 1 kts | 324° |
| 2026-05-04 04:50 | 50.83837 | -0.29321 | 9 ft | 3 kts | 333° |
| 2026-05-04 04:51 | 50.83853 | -0.29333 | 9 ft | 4 kts | 337° |
| 2026-05-04 04:51 | 50.83885 | -0.29338 | 9 ft | 5 kts | 6° |
| 2026-05-04 04:51 | 50.83924 | -0.29347 | 10 ft | 5 kts | 347° |
| 2026-05-04 04:51 | 50.83928 | -0.29348 | 10 ft | 0 kts | 357° |
| 2026-05-04 05:00 | 50.83972 | -0.29355 | 9 ft | 6 kts | 301° |
| 2026-05-04 05:01 | 50.83989 | -0.29421 | 9 ft | 7 kts | 290° |
| 2026-05-04 05:01 | 50.83970 | -0.29475 | 9 ft | 1 kts | 199° |
| 2026-05-04 05:01 | 50.83966 | -0.29478 | 9 ft | 7 kts | 204° |
| 2026-05-04 05:02 | 50.83743 | -0.29618 | 12 ft | 58 kts | 201° |
| 2026-05-04 05:02 | 50.83273 | -0.29904 | 50 ft | 78 kts | 201° |
| 2026-05-04 05:02 | 50.82763 | -0.30197 | 160 ft | 77 kts | 200° |
| 2026-05-04 05:02 | 50.82255 | -0.30420 | 304 ft | 77 kts | 193° |
| 2026-05-04 05:03 | 50.81728 | -0.30585 | 545 ft | 78 kts | 189° |
| 2026-05-04 05:03 | 50.81170 | -0.30478 | 751 ft | 85 kts | 169° |
| 2026-05-04 05:04 | 50.79288 | -0.30372 | 1213 ft | 92 kts | 180° |
| 2026-05-04 05:04 | 50.78653 | -0.30316 | 1354 ft | 92 kts | 182° |
| 2026-05-04 05:04 | 50.78086 | -0.30720 | 1439 ft | 91 kts | 234° |
| 2026-05-04 05:06 | 50.77960 | -0.37840 | 2172 ft | 101 kts | 273° |
| 2026-05-04 05:06 | 50.77989 | -0.38969 | 2293 ft | 103 kts | 273° |
| 2026-05-04 05:06 | 50.78006 | -0.40086 | 2442 ft | 103 kts | 271° |
| 2026-05-04 05:07 | 50.78005 | -0.41224 | 2573 ft | 103 kts | 270° |
| 2026-05-04 05:07 | 50.77995 | -0.42355 | 2705 ft | 104 kts | 269° |
| 2026-05-04 05:07 | 50.77970 | -0.43495 | 2842 ft | 103 kts | 268° |
| 2026-05-04 05:09 | 50.77974 | -0.52680 | 3750 ft | 108 kts | 270° |
| 2026-05-04 05:09 | 50.77997 | -0.53861 | 3742 ft | 104 kts | 271° |
| 2026-05-04 05:10 | 50.78037 | -0.54993 | 3725 ft | 102 kts | 273° |
| 2026-05-04 05:10 | 50.78110 | -0.56092 | 3737 ft | 98 kts | 276° |
| 2026-05-04 05:10 | 50.78206 | -0.57159 | 3726 ft | 99 kts | 277° |
| 2026-05-04 05:10 | 50.78246 | -0.57571 | 3740 ft | 97 kts | 277° |
| 2026-05-04 05:11 | 50.78294 | -0.58007 | 3755 ft | 96 kts | 278° |
| 2026-05-04 05:11 | 50.78399 | -0.59035 | 3777 ft | 95 kts | 274° |
| 2026-05-04 05:11 | 50.78458 | -0.60064 | 3821 ft | 92 kts | 274° |
| 2026-05-04 05:11 | 50.78521 | -0.61091 | 3847 ft | 92 kts | 273° |
| 2026-05-04 05:12 | 50.78570 | -0.62096 | 3859 ft | 94 kts | 273° |
| 2026-05-04 05:12 | 50.78493 | -0.63089 | 3920 ft | 89 kts | 243° |
| 2026-05-04 05:12 | 50.77981 | -0.63575 | 3951 ft | 91 kts | 185° |
| 2026-05-04 05:12 | 50.77375 | -0.63293 | 3983 ft | 94 kts | 147° |
| 2026-05-04 05:13 | 50.76987 | -0.62454 | 4005 ft | 98 kts | 109° |
| 2026-05-04 05:13 | 50.76927 | -0.61389 | 4029 ft | 100 kts | 91° |
| 2026-05-04 05:13 | 50.76933 | -0.60296 | 4049 ft | 100 kts | 91° |
| 2026-05-04 05:13 | 50.76940 | -0.59184 | 4064 ft | 101 kts | 91° |
| 2026-05-04 05:14 | 50.76943 | -0.58060 | 4060 ft | 104 kts | 91° |
| 2026-05-04 05:14 | 50.76946 | -0.56930 | 4075 ft | 104 kts | 92° |
| 2026-05-04 05:14 | 50.76930 | -0.55792 | 4087 ft | 103 kts | 94° |
| 2026-05-04 05:14 | 50.76899 | -0.54662 | 4090 ft | 103 kts | 94° |
| 2026-05-04 05:15 | 50.76889 | -0.53528 | 4100 ft | 103 kts | 90° |
| 2026-05-04 05:15 | 50.76933 | -0.52394 | 4095 ft | 104 kts | 87° |
| 2026-05-04 05:15 | 50.76983 | -0.51258 | 4112 ft | 103 kts | 88° |
| 2026-05-04 05:15 | 50.77009 | -0.50125 | 4114 ft | 104 kts | 90° |
| 2026-05-04 05:16 | 50.76998 | -0.48990 | 4122 ft | 103 kts | 94° |
| 2026-05-04 05:16 | 50.76944 | -0.47858 | 4122 ft | 104 kts | 93° |
| 2026-05-04 05:16 | 50.76961 | -0.46720 | 4137 ft | 103 kts | 90° |
| 2026-05-04 05:16 | 50.76962 | -0.45584 | 4143 ft | 104 kts | 93° |
| 2026-05-04 05:17 | 50.76949 | -0.44448 | 4159 ft | 103 kts | 92° |
| 2026-05-04 05:17 | 50.76924 | -0.43313 | 4169 ft | 103 kts | 94° |
| 2026-05-04 05:17 | 50.76888 | -0.42182 | 4184 ft | 103 kts | 95° |
| 2026-05-04 05:17 | 50.76829 | -0.41053 | 4187 ft | 104 kts | 97° |
| 2026-05-04 05:18 | 50.76823 | -0.39919 | 4207 ft | 103 kts | 89° |
| 2026-05-04 05:18 | 50.76880 | -0.38789 | 4209 ft | 104 kts | 86° |
| 2026-05-04 05:18 | 50.76936 | -0.37657 | 4215 ft | 103 kts | 88° |
| 2026-05-04 05:18 | 50.76959 | -0.36523 | 4223 ft | 103 kts | 92° |
| 2026-05-04 05:19 | 50.76926 | -0.35391 | 4216 ft | 104 kts | 96° |
| 2026-05-04 05:19 | 50.76881 | -0.34260 | 4226 ft | 103 kts | 94° |
| 2026-05-04 05:19 | 50.76852 | -0.33126 | 4225 ft | 103 kts | 94° |
| 2026-05-04 05:19 | 50.76812 | -0.31993 | 4227 ft | 104 kts | 95° |
| 2026-05-04 05:20 | 50.76785 | -0.30858 | 4240 ft | 103 kts | 92° |
| 2026-05-04 05:20 | 50.76793 | -0.29724 | 4242 ft | 104 kts | 90° |
| 2026-05-04 05:20 | 50.76803 | -0.28587 | 4250 ft | 103 kts | 91° |
| 2026-05-04 05:20 | 50.76789 | -0.27454 | 4258 ft | 103 kts | 94° |
| 2026-05-04 05:21 | 50.76738 | -0.26326 | 4263 ft | 103 kts | 97° |
| 2026-05-04 05:21 | 50.76696 | -0.25209 | 4264 ft | 103 kts | 92° |
| 2026-05-04 05:21 | 50.76710 | -0.24071 | 4270 ft | 103 kts | 89° |
| 2026-05-04 05:21 | 50.76740 | -0.22940 | 4276 ft | 103 kts | 89° |
| 2026-05-04 05:22 | 50.76761 | -0.21804 | 4286 ft | 103 kts | 90° |
| 2026-05-04 05:22 | 50.76760 | -0.20672 | 4292 ft | 103 kts | 93° |
| 2026-05-04 05:22 | 50.76730 | -0.19542 | 4298 ft | 103 kts | 94° |
| 2026-05-04 05:22 | 50.76718 | -0.18408 | 4299 ft | 103 kts | 90° |
| 2026-05-04 05:23 | 50.76773 | -0.17277 | 4300 ft | 103 kts | 86° |
| 2026-05-04 05:23 | 50.76842 | -0.16146 | 4306 ft | 103 kts | 86° |
| 2026-05-04 05:23 | 50.76907 | -0.15013 | 4310 ft | 104 kts | 86° |
| 2026-05-04 05:23 | 50.76958 | -0.13880 | 4322 ft | 103 kts | 88° |
| 2026-05-04 05:24 | 50.76996 | -0.12743 | 4323 ft | 103 kts | 89° |
| 2026-05-04 05:24 | 50.77020 | -0.11611 | 4328 ft | 103 kts | 90° |
| 2026-05-04 05:24 | 50.77030 | -0.10483 | 4299 ft | 102 kts | 91° |
| 2026-05-04 05:24 | 50.77070 | -0.09338 | 4199 ft | 105 kts | 81° |
| 2026-05-04 05:25 | 50.77385 | -0.08308 | 4118 ft | 105 kts | 59° |
| 2026-05-04 05:25 | 50.77957 | -0.07597 | 4013 ft | 105 kts | 27° |
| 2026-05-04 05:25 | 50.78646 | -0.07279 | 3933 ft | 102 kts | 8° |
| 2026-05-04 05:25 | 50.79352 | -0.07190 | 3843 ft | 102 kts | 0° |
| 2026-05-04 05:26 | 50.80057 | -0.07153 | 3764 ft | 101 kts | 360° |
| 2026-05-04 05:26 | 50.80761 | -0.07116 | 3682 ft | 101 kts | 359° |
| 2026-05-04 05:26 | 50.81460 | -0.07098 | 3607 ft | 101 kts | 359° |
| 2026-05-04 05:26 | 50.82152 | -0.07208 | 3505 ft | 101 kts | 340° |
| 2026-05-04 05:27 | 50.82692 | -0.07863 | 3400 ft | 98 kts | 305° |
| 2026-05-04 05:28 | 50.85032 | -0.13638 | 2618 ft | 83 kts | 294° |
| 2026-05-04 05:29 | 50.85251 | -0.14497 | 2486 ft | 84 kts | 289° |
| 2026-05-04 05:29 | 50.85420 | -0.15375 | 2366 ft | 84 kts | 285° |
| 2026-05-04 05:29 | 50.85549 | -0.16257 | 2245 ft | 82 kts | 282° |
| 2026-05-04 05:29 | 50.85642 | -0.17154 | 2093 ft | 83 kts | 280° |
| 2026-05-04 05:31 | 50.86510 | -0.23225 | 869 ft | 78 kts | 257° |
| 2026-05-04 05:31 | 50.86293 | -0.23983 | 769 ft | 72 kts | 245° |
| 2026-05-04 05:32 | 50.86084 | -0.24676 | 726 ft | 69 kts | 246° |
| 2026-05-04 05:32 | 50.85886 | -0.25388 | 718 ft | 72 kts | 250° |
| 2026-05-04 05:32 | 50.85738 | -0.26133 | 777 ft | 69 kts | 254° |
| 2026-05-04 05:33 | 50.85357 | -0.27643 | 720 ft | 75 kts | 248° |
| 2026-05-04 05:33 | 50.85111 | -0.28368 | 566 ft | 75 kts | 237° |
| 2026-05-04 05:33 | 50.84729 | -0.28943 | 356 ft | 76 kts | 217° |
| 2026-05-04 05:33 | 50.84243 | -0.29303 | 124 ft | 76 kts | 204° |
| 2026-05-04 05:34 | 50.83782 | -0.29594 | 12 ft | 60 kts | 203° |
| 2026-05-04 05:34 | 50.83480 | -0.29782 | 10 ft | 27 kts | 201° |
| 2026-05-04 05:34 | 50.83330 | -0.29875 | 10 ft | 18 kts | 203° |
| 2026-05-04 05:34 | 50.83245 | -0.29899 | 10 ft | 10 kts | 112° |
| 2026-05-04 05:35 | 50.83249 | -0.29853 | 9 ft | 0 kts | 69° |
| 2026-05-04 05:35 | 50.83249 | -0.29852 | 9 ft | 1 kts | 65° |
| 2026-05-04 05:35 | 50.83275 | -0.29772 | 9 ft | 15 kts | 68° |
| 2026-05-04 05:36 | 50.83319 | -0.29633 | 9 ft | 14 kts | 62° |
| 2026-05-04 05:36 | 50.83363 | -0.29494 | 9 ft | 14 kts | 62° |
| 2026-05-04 05:36 | 50.83408 | -0.29353 | 9 ft | 15 kts | 66° |
| 2026-05-04 05:36 | 50.83434 | -0.29212 | 10 ft | 12 kts | 114° |
| 2026-05-04 05:37 | 50.83383 | -0.29122 | 9 ft | 8 kts | 156° |
| 2026-05-04 05:37 | 50.83396 | -0.29071 | 9 ft | 5 kts | 11° |
| 2026-05-04 05:37 | 50.83429 | -0.29088 | 9 ft | 6 kts | 346° |
| 2026-05-04 05:38 | 50.83456 | -0.29029 | 12 ft | 0 kts | 71° |